Home   Weather   India   Betul   Past weeks
Flag for India

Past Weather in Betul, Madhya Pradesh, India — Yesterday and Last 2 Weeks

Currently: 66 °F. Fog. (Weather station: Nagpur Sonegaon, India). See more current weather

Past Weather in Betul — Graph

°F

Betul Temperature Yesterday

Maximum temperature yesterday: 84 °F (at 1:30 pm)
Minimum temperature yesterday: 59 °F (at 6:30 am)
Average temperature yesterday: 72 °F

High & Low Weather Summary for the Past Weeks

 TemperatureHumidityPressure
High86 °F (Nov 29, 4:00 pm)100% (Nov 29, 3:30 am)30.09 "Hg (Nov 29, 3:30 am)
Low54 °F (Nov 21, 4:30 am)30% (Nov 19, 1:30 pm)29.83 "Hg (Nov 27, 3:30 pm)
Average69 °F65%29.97 "Hg
* Reported Nov 19 12:30 am — Dec 4 1:00 am, Betul. Weather by CustomWeather, © 2022

Note: Actual official high and low records may vary slightly from our data, if they occured in-between our weather recording intervals... More about our weather records

Betul Weather History for the Previous 24 Hours

Scroll right to see more
 ConditionsComfort  
Time TempWeatherWind HumidityBarometerVisibility
1:00 am
Sun, Dec 4
66 °FFog.3 mph83%29.98 "Hg1 mi
12:30 am66 °FFog.No wind83%29.98 "Hg1 mi
12:00 am68 °FFog.2 mph83%29.98 "Hg1 mi
11:00 pm
Sat, Dec 3
68 °FFog.No wind83%30.01 "Hg1 mi
10:30 pm68 °FFog.No wind83%30.01 "Hg1 mi
10:00 pm68 °FFog.No wind78%29.98 "Hg1 mi
9:30 pm68 °FHaze.No wind78%29.98 "Hg1 mi
9:00 pm70 °FHaze.No wind73%29.98 "Hg1 mi
8:30 pm70 °FHaze.No wind73%29.98 "Hg1 mi
8:00 pm72 °FHaze.No wind73%29.98 "Hg1 mi
7:30 pm72 °FHaze.No wind73%29.92 "Hg1 mi
7:00 pm73 °FHaze.No wind69%29.92 "Hg1 mi
6:30 pm75 °FHaze.No wind65%29.92 "Hg1 mi
6:00 pm77 °FHaze.No wind61%29.92 "Hg1 mi
5:30 pm77 °FHaze.No wind61%29.92 "Hg1 mi
5:00 pm81 °FHaze.No wind54%29.92 "Hg1 mi
4:30 pm82 °FHaze.No wind51%29.92 "Hg1 mi
4:00 pm84 °FHaze.2 mph51%29.92 "Hg1 mi
3:30 pm84 °FHaze.2 mph48%29.92 "Hg1 mi
3:00 pm84 °FHaze.2 mph48%29.92 "Hg1 mi
2:30 pm84 °FHaze.2 mph45%29.92 "Hg1 mi
2:00 pm84 °FHaze.2 mph48%29.92 "Hg1 mi
1:30 pm84 °FHaze.2 mph48%29.95 "Hg1 mi
1:00 pm82 °FHaze.2 mph55%29.95 "Hg1 mi
12:30 pm82 °FHaze.2 mph55%29.98 "Hg1 mi
11:30 am79 °FHaze.2 mph61%30.01 "Hg1 mi
11:00 am79 °FHaze.3 mph61%30.04 "Hg1 mi
10:30 am75 °FHaze.No wind69%30.04 "Hg1 mi
10:00 am75 °FHaze.3 mph69%30.04 "Hg1 mi
9:00 am70 °FFog.2 mph88%30.04 "Hg1 mi
8:30 am66 °FFog.3 mph94%30.04 "Hg1 mi
8:00 am64 °FFog.3 mph88%30.01 "Hg1 mi
7:30 am61 °FFog.No wind88%30.01 "Hg1 mi
7:00 am59 °FFog.No wind94%29.98 "Hg1 mi
6:30 am59 °FFog.No wind94%29.98 "Hg1 mi
4:30 am61 °FFog.No wind88%29.95 "Hg1 mi
3:30 am61 °FFog.No wind94%29.95 "Hg1 mi
3:00 am63 °FFog.No wind88%29.95 "Hg1 mi
2:30 am63 °FFog.No wind88%29.95 "Hg1 mi
2:00 am63 °FFog.No wind94%29.95 "Hg1 mi
Weather by CustomWeather, © 2022

See weather overview